Time;durP1;ratioP1;P1;durP2;ratioP2;P2;SDS_P1;SDS_P2;PMS_P1;PMS_P2;Temp;Humidity;BMP_temperature;BMP_pressure;BME280_temperature;BME280_humidity;BME280_pressure;Samples;Min_cycle;Max_cycle;Signal;HPM_P1;HPM_P2
2022/11/02 00:01:24;;;;;;;12.05;2.33;;;;;;;11.97;98.94;101436.09;5078364;28;20111;-73
2022/11/02 00:03:49;;;;;;;17.40;2.75;;;;;;;12.02;98.21;101435.53;5090192;28;20032;-73
2022/11/02 00:06:15;;;;;;;13.03;3.10;;;;;;;12.08;97.95;101432.00;5066725;28;20028;-73
2022/11/02 00:08:40;;;;;;;11.57;2.78;;;;;;;12.04;97.80;101448.00;5064860;28;20237;-73
2022/11/02 00:11:05;;;;;;;9.90;1.87;;;;;;;11.99;98.05;101434.00;5075553;28;20059;-73
2022/11/02 00:13:31;;;;;;;15.73;2.30;;;;;;;11.95;98.22;101432.69;5088428;28;20467;-73
2022/11/02 00:15:59;;;;;;;12.87;2.20;;;;;;;11.95;97.84;101438.19;5089145;28;20457;-73
2022/11/02 00:18:25;;;;;;;20.15;3.22;;;;;;;12.00;97.05;101445.84;5088430;28;20399;-72
2022/11/02 00:20:50;;;;;;;12.27;2.40;;;;;;;11.99;97.11;101439.50;5084586;28;20028;-73
2022/11/02 00:23:16;;;;;;;15.60;2.23;;;;;;;12.05;96.71;101422.25;5082604;28;20024;-72
2022/11/02 00:25:45;;;;;;;12.87;2.60;;;;;;;12.14;96.07;101431.22;5078083;28;20115;-72
2022/11/02 00:28:11;;;;;;;12.40;2.10;;;;;;;12.12;95.96;101433.31;5063170;28;20107;-72
2022/11/02 00:30:36;;;;;;;20.42;2.63;;;;;;;12.12;97.77;101521.22;5080325;28;20107;-73
2022/11/02 00:33:02;;;;;;;10.30;1.93;;;;;;;11.43;95.10;101514.22;5081092;28;20169;-73
2022/11/02 00:35:27;;;;;;;6.53;1.52;;;;;;;11.12;95.80;101540.06;5085389;28;20031;-72
2022/11/02 00:37:52;;;;;;;5.10;1.20;;;;;;;11.08;96.86;101542.31;5055369;28;20025;-71
2022/11/02 00:40:18;;;;;;;2.88;0.80;;;;;;;10.82;95.37;101530.88;5085308;28;20491;-72
2022/11/02 00:42:43;;;;;;;2.53;0.67;;;;;;;10.68;94.10;101519.84;5089670;28;20115;-72
2022/11/02 00:45:09;;;;;;;11.67;1.07;;;;;;;10.59;94.91;101513.56;5087462;28;20028;-72
2022/11/02 00:47:34;;;;;;;15.27;1.93;;;;;;;10.58;95.05;101517.31;5088291;28;20052;-73
2022/11/02 00:49:59;;;;;;;2.93;0.80;;;;;;;10.46;94.65;101502.31;5078645;28;20026;-72
2022/11/02 00:52:25;;;;;;;5.40;1.67;;;;;;;10.46;94.79;101504.22;5081317;28;20027;-72
2022/11/02 00:54:50;;;;;;;5.38;1.27;;;;;;;10.37;95.01;101508.91;5088801;28;20468;-72
2022/11/02 00:57:15;;;;;;;4.10;0.93;;;;;;;10.41;94.52;101523.94;5086362;28;20032;-72
2022/11/02 00:59:40;;;;;;;7.50;1.43;;;;;;;10.40;94.81;101518.66;5089036;28;20024;-72
2022/11/02 01:02:06;;;;;;;4.10;0.90;;;;;;;10.37;95.40;101502.56;5082015;28;20035;-72
2022/11/02 01:04:31;;;;;;;2.88;0.77;;;;;;;10.38;95.02;101504.28;5089194;28;20459;-72
2022/11/02 01:06:56;;;;;;;12.93;2.03;;;;;;;10.32;96.89;101466.66;5079102;28;20153;-72
2022/11/02 01:09:22;;;;;;;6.47;1.48;;;;;;;10.30;97.34;101480.53;5075623;28;20039;-73
2022/11/02 01:11:47;;;;;;;7.37;1.13;;;;;;;10.29;97.39;101470.59;5082874;28;20444;-71
2022/11/02 01:14:12;;;;;;;13.77;1.63;;;;;;;10.30;97.43;101466.00;5074865;28;20032;-72
2022/11/02 01:16:43;;;;;;;11.90;1.40;;;;;;;10.34;96.99;101470.91;5084738;28;20542;-71
2022/11/02 01:19:09;;;;;;;11.43;1.70;;;;;;;10.40;95.88;101458.41;5088877;28;20059;-71
2022/11/02 01:21:34;;;;;;;9.00;1.75;;;;;;;10.34;96.09;101465.44;5084881;28;20065;-71
2022/11/02 01:24:00;;;;;;;17.13;2.00;;;;;;;10.32;96.29;101466.66;5071934;28;20056;-71
2022/11/02 01:26:25;;;;;;;9.05;1.67;;;;;;;10.31;94.83;101468.53;5081535;28;20035;-72
2022/11/02 01:28:52;;;;;;;5.95;1.65;;;;;;;10.26;96.46;101468.22;5082788;28;20035;-72
2022/11/02 01:31:18;;;;;;;11.60;2.10;;;;;;;10.25;96.24;101468.41;5067033;28;20495;-74
2022/11/02 01:33:44;;;;;;;8.17;1.70;;;;;;;10.27;95.96;101469.06;5086859;28;20046;-71
2022/11/02 01:36:11;;;;;;;12.25;1.55;;;;;;;10.27;96.41;101463.59;5065695;28;20040;-71
2022/11/02 01:38:37;;;;;;;13.75;1.67;;;;;;;10.23;97.19;101457.63;5081604;28;20459;-74
2022/11/02 01:41:02;;;;;;;11.10;2.70;;;;;;;10.27;97.16;101467.22;5084972;28;20059;-73
2022/11/02 01:43:34;;;;;;;16.20;2.25;;;;;;;10.29;97.70;101462.38;5087820;28;20444;-71
2022/11/02 01:46:05;;;;;;;10.70;1.63;;;;;;;10.41;97.72;101465.59;5090129;28;20451;-71
2022/11/02 01:48:34;;;;;;;12.10;3.35;;;;;;;10.46;97.86;101465.88;5085772;28;20024;-71
2022/11/02 01:51:04;;;;;;;17.25;2.20;;;;;;;10.47;98.22;101470.31;5091345;28;20058;-73
2022/11/02 01:53:32;;;;;;;13.73;2.30;;;;;;;10.65;98.17;101474.47;5086562;28;20032;-73
2022/11/02 01:55:59;;;;;;;13.77;2.55;;;;;;;10.64;99.07;101472.78;5083141;28;20036;-73
2022/11/02 01:58:25;;;;;;;16.90;2.58;;;;;;;10.70;99.34;101476.66;5082227;28;20028;-72
2022/11/02 02:00:50;;;;;;;10.23;2.38;;;;;;;10.82;99.11;101469.72;5091573;28;20036;-72
2022/11/02 02:03:19;;;;;;;15.10;2.00;;;;;;;10.86;98.82;101469.19;5080990;28;20532;-73
2022/11/02 02:06:09;;;;;;;10.25;1.90;;;;;;;11.03;98.25;101476.22;5080936;28;20081;-72
2022/11/02 02:08:38;;;;;;;10.38;2.10;;;;;;;11.16;98.08;101481.06;5915853;22;20040;-70
2022/11/02 02:11:33;;;;;;;10.10;2.20;;;;;;;11.19;98.32;101499.88;5001680;22;20052;-71
2022/11/02 02:14:03;;;;;;;14.57;3.13;;;;;;;11.27;97.80;101491.59;4996686;28;20034;-71
2022/11/02 02:16:57;;;;;;;12.65;2.25;;;;;;;11.33;97.12;101496.34;4992158;28;20037;-71
2022/11/02 02:19:37;;;;;;;9.50;2.25;;;;;;;11.30;98.48;101504.91;4991525;28;20026;-71
2022/11/02 02:22:14;;;;;;;12.05;2.40;;;;;;;11.28;98.10;101496.03;4988742;28;20081;-71
2022/11/02 02:24:58;;;;;;;9.52;2.35;;;;;;;11.30;97.83;101475.63;4994288;28;20030;-71
2022/11/02 02:28:05;;;;;;;14.05;1.98;;;;;;;11.33;96.76;101485.34;4989769;28;20472;-71
2022/11/02 02:30:39;;;;;;;14.38;2.00;;;;;;;11.34;96.48;101489.81;4992991;28;20161;-71
2022/11/02 02:33:10;;;;;;;15.93;2.20;;;;;;;11.28;96.87;101491.41;4985371;28;20515;-71
2022/11/02 02:35:42;;;;;;;11.73;2.50;;;;;;;11.29;96.20;101492.25;4989807;28;20042;-71
2022/11/02 02:38:14;;;;;;;16.23;3.72;;;;;;;11.16;97.74;101490.13;4989727;28;20035;-71
2022/11/02 02:41:11;;;;;;;12.10;2.55;;;;;;;11.12;97.59;101496.19;4989606;28;20511;-71
2022/11/02 02:43:53;;;;;;;13.77;2.38;;;;;;;11.09;97.54;101493.78;4977373;28;20046;-71
2022/11/02 02:46:23;;;;;;;17.77;3.72;;;;;;;11.09;98.55;101510.25;4975501;28;20038;-71
2022/11/02 02:48:50;;;;;;;13.68;2.63;;;;;;;11.13;97.48;101501.50;4991192;28;20045;-71
2022/11/02 02:51:21;;;;;;;13.70;2.33;;;;;;;11.17;96.34;101478.16;4990143;28;20030;-71
2022/11/02 02:53:52;;;;;;;17.45;2.38;;;;;;;11.14;95.43;101486.75;4990819;28;20061;-71
2022/11/02 02:56:22;;;;;;;14.15;3.60;;;;;;;11.14;95.38;101485.88;4990682;28;20072;-71
2022/11/02 02:58:55;;;;;;;21.75;2.67;;;;;;;11.03;96.12;101495.41;4992032;28;20106;-71
2022/11/02 03:01:21;;;;;;;13.45;2.50;;;;;;;11.16;94.76;101490.13;4990566;28;20072;-71
2022/11/02 03:03:47;;;;;;;12.68;2.72;;;;;;;11.14;94.91;101494.97;4989224;28;20034;-71
2022/11/02 03:06:32;;;;;;;11.40;2.00;;;;;;;11.14;94.51;101491.34;4989642;28;20042;-71
2022/11/02 03:09:14;;;;;;;13.30;2.58;;;;;;;11.19;93.35;101500.75;4989343;28;20038;-71
2022/11/02 03:11:53;;;;;;;12.05;2.53;;;;;;;11.25;93.51;101493.66;4977073;28;20096;-71
2022/11/02 03:14:51;;;;;;;10.73;2.00;;;;;;;11.33;92.43;101504.56;4989897;28;20037;-71
2022/11/02 03:17:23;;;;;;;14.55;2.53;;;;;;;11.31;92.53;101507.47;4974162;28;20413;-71
2022/11/02 03:20:04;;;;;;;19.95;3.67;;;;;;;11.36;92.22;101493.22;4972878;28;20034;-71
2022/11/02 03:22:38;;;;;;;12.27;2.65;;;;;;;11.41;91.59;101496.22;4983809;28;20130;-71
2022/11/02 03:25:16;;;;;;;14.30;2.38;;;;;;;11.45;90.75;101490.22;4972465;28;20053;-71
2022/11/02 03:28:00;;;;;;;22.83;3.08;;;;;;;11.44;91.31;101496.75;4989255;28;20130;-71
2022/11/02 03:30:30;;;;;;;19.08;2.88;;;;;;;11.46;91.49;101505.63;4990316;28;20122;-71
2022/11/02 03:33:01;;;;;;;15.98;2.83;;;;;;;11.38;91.79;101504.84;4987857;28;21683;-71
2022/11/02 03:35:41;;;;;;;20.23;3.08;;;;;;;11.41;90.92;101505.31;4989615;28;20093;-71
2022/11/02 03:38:14;;;;;;;13.10;2.33;;;;;;;11.44;91.08;101515.94;4988230;28;20041;-72
2022/11/02 03:40:44;;;;;;;19.98;3.28;;;;;;;11.33;92.31;101510.91;4988576;28;20033;-71
2022/11/02 03:43:12;;;;;;;17.00;4.00;;;;;;;11.34;92.12;101518.09;4991361;28;20041;-71
2022/11/02 03:45:41;;;;;;;29.27;3.05;;;;;;;11.36;92.55;101517.91;4991042;28;20117;-71
2022/11/02 03:48:10;;;;;;;18.48;3.33;;;;;;;11.33;91.91;101529.25;4978853;28;20169;-72
2022/11/02 03:50:40;;;;;;;20.63;3.05;;;;;;;11.34;91.33;101530.94;4990076;28;20030;-72
2022/11/02 03:53:11;;;;;;;18.75;2.60;;;;;;;11.35;91.66;101549.97;4990682;28;20037;-72
2022/11/02 03:55:41;;;;;;;15.38;3.28;;;;;;;11.42;91.55;101545.44;4989663;28;20396;-71
2022/11/02 03:58:10;;;;;;;15.95;2.55;;;;;;;11.36;92.42;101556.31;4990236;28;20030;-71
2022/11/02 04:00:37;;;;;;;13.63;3.03;;;;;;;11.37;92.17;101550.63;4989154;28;20389;-71
2022/11/02 04:03:06;;;;;;;15.02;3.42;;;;;;;11.38;92.08;101552.31;4990031;28;20034;-72
2022/11/02 04:05:35;;;;;;;19.55;3.13;;;;;;;11.31;92.13;101550.53;4990217;28;20037;-71
2022/11/02 04:08:19;;;;;;;22.73;3.58;;;;;;;11.27;92.88;101565.66;4990427;28;20469;-71
2022/11/02 04:16:15;;;;;;;21.10;2.67;;;;;;;11.24;93.60;101576.97;4990367;28;20084;-72
2022/11/02 04:21:25;;;;;;;17.02;2.33;;;;;;;11.23;94.17;101581.63;4989896;28;20440;-72
2022/11/02 04:26:35;;;;;;;22.02;3.40;;;;;;;11.28;94.30;101594.75;4990623;28;20599;-71
2022/11/02 04:29:00;;;;;;;22.83;3.50;;;;;;;11.29;93.53;101599.22;4991943;28;20030;-71
2022/11/02 04:31:25;;;;;;;22.20;3.67;;;;;;;11.37;92.78;101619.19;4993656;28;20397;-70
2022/11/02 04:33:51;;;;;;;19.40;3.28;;;;;;;11.37;92.28;101618.38;4989700;28;20122;-71
2022/11/02 04:36:16;;;;;;;23.20;3.80;;;;;;;11.35;92.37;101623.16;4987755;28;20130;-71
2022/11/02 04:38:41;;;;;;;26.27;3.17;;;;;;;11.32;93.47;101638.09;4989078;28;20069;-71
2022/11/02 04:43:51;;;;;;;26.60;4.25;;;;;;;11.36;92.83;101644.94;4990124;28;20141;-71
2022/11/02 04:46:16;;;;;;;27.50;4.33;;;;;;;11.32;93.34;101648.22;4990007;28;20129;-71
2022/11/02 04:48:41;;;;;;;30.50;3.63;;;;;;;11.32;92.52;101664.69;4990631;28;20038;-72
2022/11/02 04:51:07;;;;;;;21.43;3.17;;;;;;;11.26;93.75;101654.44;4988017;28;20183;-71
2022/11/02 04:53:34;;;;;;;17.48;3.50;;;;;;;11.31;91.99;101662.97;4990110;28;20041;-71
2022/11/02 04:55:59;;;;;;;18.90;2.80;;;;;;;11.35;91.93;101670.66;4988193;28;20030;-71
2022/11/02 04:58:25;;;;;;;18.87;2.67;;;;;;;11.30;92.69;101677.72;4987583;28;20048;-71
2022/11/02 05:00:50;;;;;;;25.10;3.45;;;;;;;11.26;92.92;101681.88;4989572;28;20113;-71
2022/11/02 05:03:15;;;;;;;31.00;3.40;;;;;;;11.25;92.73;101686.50;4988252;28;20034;-71
2022/11/02 05:05:40;;;;;;;13.48;2.75;;;;;;;11.24;93.06;101689.41;4989226;28;20038;-71
2022/11/02 05:08:06;;;;;;;21.33;3.30;;;;;;;11.29;92.54;101692.47;4991276;28;20031;-71
2022/11/02 05:10:31;;;;;;;15.77;2.88;;;;;;;11.26;93.52;101701.91;4988468;28;20440;-70
2022/11/02 05:12:57;;;;;;;26.17;2.90;;;;;;;11.29;93.23;101698.81;4992034;28;20030;-71
2022/11/02 05:15:22;;;;;;;20.53;3.33;;;;;;;11.33;92.23;101702.03;4990857;28;20393;-71
2022/11/02 05:17:48;;;;;;;21.03;3.37;;;;;;;11.35;91.66;101702.69;4993542;28;20030;-71
2022/11/02 05:20:13;;;;;;;16.47;2.80;;;;;;;11.29;91.72;101720.75;4991153;28;20362;-71
2022/11/02 05:22:42;;;;;;;12.43;2.57;;;;;;;11.25;91.69;101710.31;4993494;28;20109;-71
2022/11/02 05:25:10;;;;;;;18.25;3.03;;;;;;;11.28;91.80;101720.94;4991803;28;20141;-71
2022/11/02 05:27:36;;;;;;;11.55;3.15;;;;;;;11.34;90.83;101739.41;4991542;28;20030;-71
2022/11/02 05:30:04;;;;;;;20.93;3.10;;;;;;;11.36;90.30;101726.38;4991383;28;20444;-71
2022/11/02 05:32:30;;;;;;;28.83;4.15;;;;;;;11.32;90.94;101736.00;4989458;28;20030;-71
2022/11/02 05:34:55;;;;;;;21.43;3.23;;;;;;;11.29;91.15;101733.59;4991945;28;20061;-71
2022/11/02 05:37:21;;;;;;;20.10;3.30;;;;;;;11.23;91.40;101739.81;4991643;28;20030;-71
2022/11/02 05:39:47;;;;;;;21.88;3.20;;;;;;;11.10;92.30;101747.78;4990329;28;20412;-71
2022/11/02 05:42:12;;;;;;;29.50;3.10;;;;;;;11.02;92.90;101748.66;4991251;28;20045;-71
2022/11/02 05:44:37;;;;;;;16.10;2.77;;;;;;;11.03;91.71;101754.97;4993045;28;20100;-72
2022/11/02 05:47:03;;;;;;;19.48;4.25;;;;;;;11.04;91.63;101759.47;4991126;28;20061;-72
2022/11/02 05:49:28;;;;;;;22.93;3.70;;;;;;;11.03;91.33;101763.22;4992800;28;20037;-71
2022/11/02 05:51:53;;;;;;;21.87;2.93;;;;;;;10.99;90.75;101762.72;4992399;28;20088;-70
2022/11/02 05:54:19;;;;;;;19.13;2.70;;;;;;;10.94;91.44;101778.00;4992544;28;20393;-72
2022/11/02 05:56:45;;;;;;;11.82;2.30;;;;;;;10.93;90.57;101779.88;4989859;28;20062;-70
2022/11/02 05:59:10;;;;;;;16.63;2.20;;;;;;;10.91;89.69;101783.81;4973344;28;20121;-70
2022/11/02 06:01:35;;;;;;;16.92;1.95;;;;;;;10.95;88.42;101790.66;4991494;28;20034;-70
2022/11/02 06:04:01;;;;;;;15.87;1.83;;;;;;;10.89;88.96;101794.13;4992489;28;20473;-70
2022/11/02 06:06:26;;;;;;;18.17;2.17;;;;;;;10.98;87.96;101804.00;4991443;28;20084;-71
2022/11/02 06:08:51;;;;;;;12.27;2.17;;;;;;;10.85;87.79;101807.31;4992414;28;20034;-72
2022/11/02 06:11:17;;;;;;;8.97;2.13;;;;;;;11.01;86.23;101803.66;4991022;28;20026;-72
2022/11/02 06:13:42;;;;;;;9.13;2.57;;;;;;;10.98;85.27;101812.22;4974545;28;20564;-71
2022/11/02 06:16:09;;;;;;;11.57;2.10;;;;;;;10.99;85.83;101824.94;4989898;28;20338;-72
2022/11/02 06:18:36;;;;;;;19.08;2.60;;;;;;;10.90;86.08;101823.22;4990730;28;20634;-71
2022/11/02 06:21:01;;;;;;;16.65;2.28;;;;;;;10.96;84.71;101825.28;4989791;28;20109;-70
2022/11/02 06:23:28;;;;;;;20.33;2.97;;;;;;;11.00;84.34;101843.91;4990995;28;20030;-70
2022/11/02 06:25:58;;;;;;;20.50;3.13;;;;;;;10.88;85.51;101844.50;4969469;28;20125;-70
2022/11/02 06:28:24;;;;;;;16.77;2.55;;;;;;;10.85;84.91;101848.44;4976936;28;20038;-71
2022/11/02 06:30:50;;;;;;;16.67;2.17;;;;;;;10.86;84.97;101857.50;4990858;28;20039;-71
2022/11/02 06:33:17;;;;;;;25.08;3.10;;;;;;;10.84;85.24;101856.84;4992202;28;20097;-71
2022/11/02 06:35:47;;;;;;;13.57;2.40;;;;;;;10.81;85.03;101859.91;4991849;28;20062;-70
2022/11/02 06:38:13;;;;;;;8.98;2.03;;;;;;;10.76;86.28;101868.66;4989712;28;20066;-71
2022/11/02 06:40:38;;;;;;;15.10;2.33;;;;;;;10.73;86.17;101870.91;4989371;28;20065;-71
2022/11/02 06:43:03;;;;;;;16.95;3.42;;;;;;;10.74;86.18;101875.34;4989402;28;20026;-70
2022/11/02 06:45:29;;;;;;;13.77;2.10;;;;;;;10.81;86.41;101887.31;4988906;28;20037;-71
2022/11/02 06:47:54;;;;;;;16.63;2.10;;;;;;;10.86;86.96;101888.53;4991137;28;20038;-71
2022/11/02 06:50:21;;;;;;;11.70;2.07;;;;;;;10.87;86.62;101892.09;4972259;28;20073;-72
2022/11/02 06:52:46;;;;;;;13.13;2.20;;;;;;;10.83;86.43;101907.19;4973086;28;20560;-70
2022/11/02 06:55:13;;;;;;;27.03;2.90;;;;;;;10.85;86.99;101913.34;4988805;28;20117;-71
2022/11/02 06:57:40;;;;;;;14.00;2.38;;;;;;;10.87;86.15;101922.25;4988382;28;20105;-71
2022/11/02 07:00:08;;;;;;;14.93;2.55;;;;;;;10.81;86.74;101923.81;4983759;28;20023;-70
2022/11/02 07:02:34;;;;;;;19.90;2.25;;;;;;;10.88;86.56;101926.72;4990003;28;20030;-71
2022/11/02 07:04:59;;;;;;;14.17;2.67;;;;;;;10.83;86.71;101932.69;4989935;28;20041;-70
2022/11/02 07:07:24;;;;;;;8.32;1.75;;;;;;;10.86;87.02;101947.94;4985309;28;20038;-70
2022/11/02 07:09:50;;;;;;;12.27;2.67;;;;;;;10.89;86.47;101948.44;4988598;28;20129;-70
2022/11/02 07:12:15;;;;;;;16.23;2.38;;;;;;;10.86;86.26;101948.81;4969396;28;20092;-71
2022/11/02 07:14:40;;;;;;;13.77;2.20;;;;;;;10.84;86.30;101948.13;4984879;28;20050;-70
2022/11/02 07:17:06;;;;;;;13.33;1.83;;;;;;;10.82;86.45;101958.41;4990605;28;20065;-70
2022/11/02 07:19:31;;;;;;;12.60;2.23;;;;;;;10.78;86.33;101953.44;4987817;28;20377;-71
2022/11/02 07:21:57;;;;;;;14.47;2.40;;;;;;;10.74;86.10;101958.38;4985260;28;20081;-70
2022/11/02 07:24:22;;;;;;;15.00;2.13;;;;;;;10.82;85.59;101963.00;4989423;28;20371;-70
2022/11/02 07:26:49;;;;;;;11.68;1.80;;;;;;;10.87;85.26;101971.59;4991981;28;20035;-71
2022/11/02 07:29:15;;;;;;;13.52;3.42;;;;;;;10.84;85.62;101977.44;4992281;28;20030;-70
2022/11/02 07:31:40;;;;;;;12.57;2.10;;;;;;;10.79;86.32;101977.91;4991371;28;20030;-71
2022/11/02 07:34:05;;;;;;;16.30;2.45;;;;;;;10.73;87.13;101983.25;4988931;28;20275;-72
2022/11/02 07:36:31;;;;;;;8.55;1.85;;;;;;;10.70;88.44;101994.53;4971829;28;20038;-71
2022/11/02 07:38:56;;;;;;;12.13;2.93;;;;;;;10.67;88.57;101993.00;4987764;28;20548;-71
2022/11/02 07:41:21;;;;;;;15.90;3.70;;;;;;;10.67;88.90;101993.00;4987642;28;20031;-70
2022/11/02 07:43:46;;;;;;;14.25;2.47;;;;;;;10.62;89.76;101995.38;4986582;28;20038;-71
2022/11/02 07:46:12;;;;;;;12.88;2.10;;;;;;;10.63;90.53;102007.22;4987707;28;20066;-71
2022/11/02 07:48:37;;;;;;;15.80;2.40;;;;;;;10.71;90.38;102010.81;4974577;28;20457;-71
2022/11/02 07:51:02;;;;;;;12.00;2.03;;;;;;;10.73;90.87;102010.66;4987356;28;20034;-71
2022/11/02 07:53:28;;;;;;;14.70;2.57;;;;;;;10.74;90.79;102017.84;4987079;28;20084;-71
2022/11/02 07:55:53;;;;;;;20.88;2.53;;;;;;;10.86;89.93;102022.81;4988217;28;20440;-71
2022/11/02 07:58:18;;;;;;;18.48;2.45;;;;;;;11.06;89.08;102026.09;4986194;28;21231;-70
2022/11/02 08:00:44;;;;;;;16.23;2.13;;;;;;;11.10;88.55;102027.47;4985498;28;20343;-71
2022/11/02 08:03:11;;;;;;;11.23;1.95;;;;;;;11.21;87.97;102027.09;4988327;28;20034;-71
2022/11/02 08:05:37;;;;;;;;;;;;;;;11.23;87.50;102033.25;4988777;28;20393;-71
2022/11/02 08:08:04;;;;;;;21.58;2.38;;;;;;;11.14;88.03;102034.28;4984887;28;19925;-71
2022/11/02 08:10:31;;;;;;;16.80;2.53;;;;;;;11.23;87.45;102034.13;4971928;28;20109;-72
2022/11/02 08:12:57;;;;;;;23.67;2.70;;;;;;;11.16;88.03;102024.88;4986585;28;20481;-72
2022/11/02 08:15:23;;;;;;;16.70;2.40;;;;;;;11.14;87.85;102026.94;4988945;28;20040;-71
2022/11/02 08:18:06;;;;;;;10.43;1.87;;;;;;;11.20;87.89;102030.88;4985886;28;20034;-71
2022/11/02 08:20:33;;;;;;;22.05;3.17;;;;;;;11.15;87.96;102030.53;4983081;28;20232;-71
2022/11/02 08:22:59;;;;;;;21.52;2.88;;;;;;;11.14;89.50;102043.38;4988446;28;20030;-71
2022/11/02 08:25:24;;;;;;;18.20;2.60;;;;;;;11.23;88.48;102041.50;4968723;28;20038;-71
2022/11/02 08:27:50;;;;;;;14.47;2.57;;;;;;;11.19;88.84;102038.25;4985734;28;20034;-71
2022/11/02 08:30:16;;;;;;;18.20;2.33;;;;;;;11.23;88.96;102038.75;4983760;28;20026;-71
2022/11/02 08:32:41;;;;;;;19.58;1.58;;;;;;;11.31;88.83;102049.72;4985814;28;20393;-71
2022/11/02 08:35:07;;;;;;;18.73;3.10;;;;;;;11.37;88.22;102051.78;4986209;28;20034;-70
2022/11/02 08:37:32;;;;;;;17.10;2.57;;;;;;;11.37;88.41;102057.28;4990124;28;20069;-70
2022/11/02 08:39:57;;;;;;;16.37;2.83;;;;;;;11.45;88.95;102049.00;4990192;28;20509;-70
2022/11/02 08:42:22;;;;;;;16.15;2.40;;;;;;;11.41;89.17;102061.34;4971207;28;20042;-71
2022/11/02 08:44:48;;;;;;;16.10;3.20;;;;;;;11.44;89.78;102072.00;4986532;28;20030;-71
2022/11/02 08:47:14;;;;;;;17.30;3.05;;;;;;;11.50;88.75;102063.06;4988364;28;20038;-71
2022/11/02 08:49:40;;;;;;;11.23;2.35;;;;;;;11.49;89.70;102070.47;4985772;28;20033;-71
2022/11/02 08:52:05;;;;;;;13.23;3.43;;;;;;;11.47;88.98;102067.00;4989275;28;20042;-71
2022/11/02 08:54:30;;;;;;;15.02;2.72;;;;;;;11.53;89.19;102079.19;4988026;28;20038;-71
2022/11/02 08:56:56;;;;;;;16.90;2.73;;;;;;;11.59;88.60;102079.38;4986317;28;20045;-70
2022/11/02 08:59:21;;;;;;;15.40;3.77;;;;;;;11.64;87.82;102074.22;4985235;28;20673;-70
2022/11/02 09:01:46;;;;;;;17.60;2.67;;;;;;;11.71;87.70;102086.25;4987553;28;20026;-70
2022/11/02 09:04:12;;;;;;;21.30;3.35;;;;;;;11.79;86.95;102088.94;4987911;28;20612;-70
2022/11/02 09:06:37;;;;;;;13.07;2.40;;;;;;;11.85;87.66;102090.16;4993704;28;20037;-70
2022/11/02 09:09:02;;;;;;;15.80;2.30;;;;;;;11.88;87.47;102089.78;4970215;28;20030;-71
2022/11/02 09:11:28;;;;;;;21.00;3.30;;;;;;;11.84;87.89;102091.19;4986516;28;20057;-70
2022/11/02 09:13:54;;;;;;;15.50;2.93;;;;;;;11.90;87.70;102099.56;4986563;28;20026;-71
2022/11/02 09:16:19;;;;;;;25.55;3.63;;;;;;;11.95;87.07;102102.63;4968017;28;20113;-71
2022/11/02 09:18:44;;;;;;;17.17;2.73;;;;;;;12.04;86.21;102098.84;4986962;28;20508;-70
2022/11/02 09:21:10;;;;;;;22.13;2.57;;;;;;;12.09;86.32;102103.81;4987447;28;20118;-70
2022/11/02 09:23:35;;;;;;;20.13;4.03;;;;;;;12.18;86.05;102108.25;4986362;28;20105;-70
2022/11/02 09:26:00;;;;;;;18.00;3.50;;;;;;;12.18;85.31;102106.34;4987303;28;20038;-71
2022/11/02 09:28:26;;;;;;;20.43;2.57;;;;;;;12.16;85.88;102110.31;4983593;28;20370;-71
2022/11/02 09:30:51;;;;;;;21.30;3.83;;;;;;;12.21;83.24;102114.25;4985899;28;20335;-70
2022/11/02 09:33:17;;;;;;;27.67;4.07;;;;;;;12.19;84.33;102113.56;4987855;28;20541;-70
2022/11/02 09:35:45;;;;;;;22.37;3.27;;;;;;;12.25;83.42;102123.84;4985656;28;20613;-72
2022/11/02 09:38:11;;;;;;;19.02;2.88;;;;;;;12.33;84.14;102118.31;4983740;28;20419;-70
2022/11/02 09:40:45;;;;;;;18.60;3.40;;;;;;;12.40;83.22;102124.81;4994166;28;20458;-70
2022/11/02 09:43:26;;;;;;;18.52;2.80;;;;;;;12.52;83.30;102117.91;4985454;28;20122;-70
2022/11/02 09:46:06;;;;;;;28.77;2.90;;;;;;;12.71;82.86;102122.94;4986261;28;20061;-71
2022/11/02 09:48:42;;;;;;;21.88;4.03;;;;;;;12.84;82.18;102127.84;4985214;28;20474;-70
2022/11/02 09:51:17;;;;;;;17.60;3.10;;;;;;;12.84;81.63;102127.84;4987090;28;20066;-72
2022/11/02 09:54:04;;;;;;;13.98;2.65;;;;;;;12.98;81.36;102133.47;4987800;28;20041;-71
2022/11/02 09:56:31;;;;;;;13.85;2.83;;;;;;;12.93;80.26;102137.78;4989564;28;20035;-72
2022/11/02 09:59:11;;;;;;;25.10;2.85;;;;;;;13.03;80.97;102143.94;4985496;28;20482;-70
2022/11/02 10:01:41;;;;;;;24.77;2.88;;;;;;;13.14;80.33;102141.59;4990064;28;20489;-71
2022/11/02 10:04:26;;;;;;;14.85;2.55;;;;;;;13.22;79.40;102137.94;4987638;28;20026;-71
2022/11/02 10:07:27;;;;;;;17.90;3.42;;;;;;;13.27;79.95;102136.38;4989007;28;20045;-71
2022/11/02 10:10:09;;;;;;;13.57;3.03;;;;;;;13.33;78.97;102130.13;4978285;28;20133;-70
2022/11/02 10:12:56;;;;;;;23.27;2.83;;;;;;;13.40;79.39;102124.75;4989884;28;20041;-70
2022/11/02 10:15:34;;;;;;;16.93;2.80;;;;;;;13.53;79.12;102122.22;4988888;28;20045;-70
2022/11/02 10:18:02;;;;;;;20.50;4.20;;;;;;;13.65;77.59;102140.00;4990903;28;20536;-70
2022/11/02 10:20:40;;;;;;;20.45;3.40;;;;;;;13.75;78.07;102130.47;4990256;28;20033;-70
2022/11/02 10:23:10;;;;;;;18.63;4.13;;;;;;;13.85;77.25;102146.72;4988226;28;20026;-71
2022/11/02 10:25:36;;;;;;;17.83;3.85;;;;;;;13.87;77.00;102147.41;4990862;28;20069;-70
2022/11/02 10:28:19;;;;;;;24.43;3.50;;;;;;;13.73;77.81;102148.22;4988543;28;20018;-71
2022/11/02 10:30:44;;;;;;;16.60;3.00;;;;;;;13.94;77.23;102146.44;4991208;28;20034;-71
2022/11/02 10:33:17;;;;;;;20.67;3.80;;;;;;;14.11;77.25;102161.78;4988367;28;20482;-71
2022/11/02 10:36:09;;;;;;;18.92;3.15;;;;;;;14.12;75.51;102159.88;4991037;28;20083;-71
2022/11/02 10:39:04;;;;;;;10.77;2.47;;;;;;;14.02;75.82;102160.16;4991660;28;20057;-71
2022/11/02 10:41:36;;;;;;;22.40;3.20;;;;;;;14.18;76.18;102165.50;4994991;28;20085;-71
2022/11/02 10:44:20;;;;;;;23.02;4.13;;;;;;;14.19;76.60;102166.34;4990353;28;20050;-71
2022/11/02 10:46:52;;;;;;;17.48;3.00;;;;;;;14.19;75.94;102166.34;4990401;28;20037;-71
2022/11/02 10:49:50;;;;;;;14.40;3.08;;;;;;;14.23;75.08;102175.97;4988429;28;20057;-71
2022/11/02 10:52:17;;;;;;;23.98;3.97;;;;;;;14.26;75.52;102168.19;4989361;28;20026;-71
2022/11/02 10:54:42;;;;;;;21.67;3.38;;;;;;;14.31;74.92;102165.72;4988643;28;20056;-71
2022/11/02 10:57:12;;;;;;;15.90;3.07;;;;;;;14.44;74.95;102170.56;4986498;28;20030;-71
2022/11/02 10:59:38;;;;;;;15.32;2.75;;;;;;;14.53;74.05;102169.44;4985011;28;20030;-72
2022/11/02 11:02:10;;;;;;;21.97;4.80;;;;;;;14.44;73.93;102174.19;4982908;28;20031;-71
2022/11/02 11:04:36;;;;;;;26.45;3.60;;;;;;;14.35;74.43;102167.06;4986922;28;20475;-71
2022/11/02 11:07:12;;;;;;;16.80;3.13;;;;;;;14.49;74.49;102160.69;4987441;28;20113;-72
2022/11/02 11:09:47;;;;;;;21.85;3.72;;;;;;;14.54;74.21;102165.63;4987627;28;20367;-71
2022/11/02 11:12:21;;;;;;;17.80;2.85;;;;;;;14.65;73.62;102154.97;4988291;28;20045;-71
2022/11/02 11:14:54;;;;;;;15.20;3.38;;;;;;;14.62;73.26;102144.31;4988081;28;20038;-71
2022/11/02 11:17:35;;;;;;;23.08;3.92;;;;;;;14.62;72.52;102140.72;4985133;28;20030;-71
2022/11/02 11:20:03;;;;;;;16.23;3.17;;;;;;;14.74;71.97;102141.94;4989460;28;20489;-71
2022/11/02 11:22:39;;;;;;;17.58;2.85;;;;;;;14.88;72.45;102143.81;4987659;28;20093;-71
2022/11/02 11:25:26;;;;;;;15.50;2.45;;;;;;;14.91;71.15;102147.03;4986993;28;20030;-71
2022/11/02 11:27:53;;;;;;;22.45;2.95;;;;;;;14.85;71.37;102147.81;4988012;28;20023;-71
2022/11/02 11:30:30;;;;;;;22.20;3.92;;;;;;;14.93;71.98;102157.84;4987025;28;20041;-71
2022/11/02 11:32:57;;;;;;;13.88;3.33;;;;;;;14.98;70.61;102158.13;4981802;28;20034;-72
2022/11/02 11:35:26;;;;;;;;;;;;;;;14.97;70.31;102151.78;4990059;28;20435;-72
2022/11/02 11:37:56;;;;;;;34.65;4.97;;;;;;;14.93;70.43;102164.25;4985813;28;20300;-71
2022/11/02 11:40:21;;;;;;;12.98;3.22;;;;;;;14.86;69.13;102170.72;4990311;28;20030;-71
2022/11/02 11:42:53;;;;;;;14.93;3.03;;;;;;;14.85;70.41;102169.88;4972491;28;20449;-70